createdAt,value
2023-05-14T00:01:31.538Z,9.32
2023-05-14T00:03:58.169Z,9.23
2023-05-14T00:06:25.452Z,11.25
2023-05-14T00:11:18.244Z,10.18
2023-05-14T00:13:44.688Z,9.43
2023-05-14T00:16:11.829Z,9.80
2023-05-14T00:18:38.577Z,9.65
2023-05-14T00:21:05.119Z,9.27
2023-05-14T00:23:31.549Z,8.95
2023-05-14T00:25:58.023Z,9.40
2023-05-14T00:28:24.477Z,9.40
2023-05-14T00:30:51.454Z,8.43
2023-05-14T00:33:17.902Z,8.65
2023-05-14T00:35:44.386Z,9.27
2023-05-14T00:38:17.157Z,8.98
2023-05-14T00:40:45.926Z,9.18
2023-05-14T00:43:12.541Z,8.82
2023-05-14T00:45:39.263Z,8.20
2023-05-14T00:48:05.872Z,8.93
2023-05-14T00:50:32.330Z,8.13
2023-05-14T00:52:58.887Z,8.25
2023-05-14T00:55:25.996Z,8.75
2023-05-14T00:57:54.712Z,8.43
2023-05-14T01:00:21.417Z,7.72
2023-05-14T01:02:51.364Z,8.00
2023-05-14T01:05:18.311Z,8.40
2023-05-14T01:08:05.313Z,8.15
2023-05-14T01:11:06.515Z,7.38
2023-05-14T01:13:48.292Z,8.18
2023-05-14T01:16:19.052Z,7.78
2023-05-14T01:18:48.503Z,7.97
2023-05-14T01:21:43.524Z,7.97
2023-05-14T01:24:09.998Z,7.80
2023-05-14T01:26:36.954Z,8.05
2023-05-14T01:29:16.569Z,7.97
2023-05-14T01:31:46.067Z,8.07
2023-05-14T01:34:14.735Z,8.02
2023-05-14T01:51:47.976Z,8.00
2023-05-14T01:54:14.481Z,8.30
2023-05-14T01:56:40.987Z,8.52
2023-05-14T01:59:07.517Z,8.50
2023-05-14T02:01:34.203Z,7.90
2023-05-14T02:04:01.227Z,7.88
2023-05-14T02:06:27.729Z,7.28
2023-05-14T02:08:54.200Z,7.93
2023-05-14T02:11:21.889Z,8.02
2023-05-14T02:13:48.337Z,7.55
2023-05-14T02:16:14.851Z,6.70
2023-05-14T02:18:41.432Z,8.05
2023-05-14T02:21:07.909Z,8.45
2023-05-14T02:23:41.519Z,7.28
2023-05-14T02:26:10.103Z,8.10
2023-05-14T02:28:36.554Z,8.38
2023-05-14T02:31:03.119Z,7.68
2023-05-14T02:33:29.638Z,7.90
2023-05-14T02:35:56.171Z,8.52
2023-05-14T02:38:23.212Z,8.18
2023-05-14T02:40:49.752Z,8.70
2023-05-14T02:43:16.217Z,7.38
2023-05-14T02:45:43.103Z,7.20
2023-05-14T02:48:09.664Z,8.10
2023-05-14T02:50:36.168Z,7.55
2023-05-14T02:53:02.614Z,8.40
2023-05-14T02:55:29.274Z,7.88
2023-05-14T02:57:56.846Z,7.97
2023-05-14T03:00:23.748Z,8.75
2023-05-14T03:02:50.899Z,8.48
2023-05-14T03:05:17.934Z,8.15
2023-05-14T03:07:44.374Z,8.13
2023-05-14T03:10:10.912Z,7.30
2023-05-14T03:12:37.380Z,7.40
2023-05-14T03:15:03.997Z,8.00
2023-05-14T03:17:30.542Z,8.20
2023-05-14T03:19:57.033Z,7.80
2023-05-14T03:22:23.476Z,8.02
2023-05-14T03:24:49.900Z,8.40
2023-05-14T03:27:16.380Z,7.95
2023-05-14T03:29:42.829Z,7.70
2023-05-14T03:32:09.376Z,7.68
2023-05-14T03:34:36.063Z,8.75
2023-05-14T03:37:02.529Z,8.07
2023-05-14T03:39:29.033Z,8.32
2023-05-14T03:41:57.260Z,8.05
2023-05-14T03:44:23.746Z,7.68
2023-05-14T03:46:50.319Z,7.75
2023-05-14T03:49:16.776Z,7.40
2023-05-14T03:51:43.354Z,6.93
2023-05-14T03:54:10.507Z,6.97
2023-05-14T03:56:37.044Z,7.72
2023-05-14T03:59:03.470Z,6.47
2023-05-14T04:01:30.117Z,6.97
2023-05-14T04:03:56.742Z,6.93
2023-05-14T04:06:23.247Z,6.68
2023-05-14T04:08:49.785Z,6.88
2023-05-14T04:11:16.218Z,7.53
2023-05-14T04:13:42.732Z,6.63
2023-05-14T04:16:09.179Z,6.47
2023-05-14T04:18:35.854Z,7.07
2023-05-14T04:21:02.921Z,6.82
2023-05-14T04:23:29.705Z,7.07
2023-05-14T04:28:22.558Z,5.90
2023-05-14T04:30:49.475Z,6.28
2023-05-14T04:33:15.919Z,5.65
2023-05-14T04:35:42.333Z,6.13
2023-05-14T04:38:09.180Z,6.90
2023-05-14T04:43:02.039Z,5.40
2023-05-14T04:45:28.472Z,5.90
2023-05-14T04:47:55.053Z,6.13
2023-05-14T04:50:22.102Z,5.68
2023-05-14T04:52:48.758Z,5.60
2023-05-14T04:55:15.295Z,6.00
2023-05-14T04:57:41.740Z,5.78
2023-05-14T05:00:10.084Z,5.85
2023-05-14T05:02:36.670Z,6.00
2023-05-14T05:05:06.109Z,5.50
2023-05-14T05:07:32.582Z,5.95
2023-05-14T05:09:59.075Z,5.55
2023-05-14T05:12:26.068Z,5.45
2023-05-14T05:14:52.523Z,5.90
2023-05-14T05:17:18.960Z,5.82
2023-05-14T05:19:45.541Z,6.07
2023-05-14T05:22:12.074Z,5.43
2023-05-14T05:24:38.568Z,6.32
2023-05-14T05:27:05.621Z,6.07
2023-05-14T05:29:32.316Z,6.97
2023-05-14T05:31:59.204Z,6.50
2023-05-14T05:34:25.705Z,5.30
2023-05-14T05:36:52.200Z,5.70
2023-05-14T05:39:18.636Z,6.20
2023-05-14T05:41:45.140Z,5.82
2023-05-14T05:44:11.619Z,5.63
2023-05-14T05:46:38.105Z,5.45
2023-05-14T05:49:04.533Z,5.60
2023-05-14T05:51:31.543Z,4.72
2023-05-14T05:54:00.922Z,5.32
2023-05-14T05:56:28.425Z,5.38
2023-05-14T05:58:54.825Z,4.93
2023-05-14T06:01:21.286Z,4.97
2023-05-14T06:03:48.850Z,4.70
2023-05-14T06:06:15.753Z,5.18
2023-05-14T06:11:08.979Z,5.25
2023-05-14T06:13:35.450Z,4.97
2023-05-14T06:16:02.130Z,4.68
2023-05-14T06:18:28.704Z,5.28
2023-05-14T06:20:56.843Z,5.90
2023-05-14T06:23:23.334Z,5.50
2023-05-14T06:25:53.645Z,4.88
2023-05-14T06:28:20.234Z,5.20
2023-05-14T06:30:49.892Z,4.95
2023-05-14T06:33:17.015Z,5.15
2023-05-14T06:35:45.991Z,5.35
2023-05-14T06:38:12.475Z,4.70
2023-05-14T06:40:38.920Z,4.50
2023-05-14T06:43:06.771Z,4.35
2023-05-14T06:45:33.395Z,4.47
2023-05-14T06:48:00.101Z,5.05
2023-05-14T06:52:52.998Z,4.20
2023-05-14T06:55:19.466Z,4.80
2023-05-14T06:57:46.070Z,4.93
2023-05-14T07:00:14.397Z,3.97
2023-05-14T07:02:40.909Z,4.90
2023-05-14T07:05:08.651Z,4.13
2023-05-14T07:07:35.217Z,4.80
2023-05-14T07:10:01.778Z,4.03
2023-05-14T07:12:28.262Z,4.78
2023-05-14T07:14:54.694Z,4.82
2023-05-14T07:17:21.165Z,4.57
2023-05-14T07:19:47.724Z,4.22
2023-05-14T07:22:14.761Z,5.13
2023-05-14T07:24:41.284Z,5.22
2023-05-14T07:27:08.653Z,4.55
2023-05-14T07:29:35.202Z,4.35
2023-05-14T07:32:01.979Z,4.85
2023-05-14T07:36:55.225Z,4.35
2023-05-14T07:39:21.660Z,4.38
2023-05-14T07:41:48.059Z,4.32
2023-05-14T07:44:14.608Z,4.70
2023-05-14T07:46:42.596Z,4.60
2023-05-14T07:49:09.050Z,4.45
2023-05-14T07:51:35.482Z,4.80
2023-05-14T07:54:02.072Z,4.15
2023-05-14T07:56:28.712Z,5.18
2023-05-14T07:58:55.255Z,4.68
2023-05-14T08:01:21.849Z,4.68
2023-05-14T08:03:48.608Z,4.25
2023-05-14T08:06:15.301Z,4.32
2023-05-14T08:08:41.760Z,4.75
2023-05-14T08:11:08.570Z,4.15
2023-05-14T08:13:39.445Z,4.07
2023-05-14T08:16:07.088Z,4.40
2023-05-14T08:18:33.506Z,4.40
2023-05-14T08:21:01.015Z,4.25
2023-05-14T08:23:28.692Z,3.45
2023-05-14T08:25:55.226Z,4.00
2023-05-14T08:28:21.681Z,4.25
2023-05-14T08:30:48.169Z,3.58
2023-05-14T08:33:14.748Z,4.43
2023-05-14T08:35:41.332Z,4.35
2023-05-14T08:38:07.823Z,4.28
2023-05-14T08:40:35.471Z,3.35
2023-05-14T08:43:02.649Z,3.80
2023-05-14T08:45:35.229Z,3.65
2023-05-14T08:48:06.870Z,4.30
2023-05-14T08:50:33.751Z,3.85
2023-05-14T08:55:28.406Z,3.90
2023-05-14T08:57:54.898Z,3.60
2023-05-14T09:00:21.688Z,3.50
2023-05-14T09:02:49.249Z,3.78
2023-05-14T09:05:18.384Z,3.58
2023-05-14T09:07:45.691Z,3.90
2023-05-14T09:10:12.133Z,4.18
2023-05-14T09:12:38.767Z,4.47
2023-05-14T09:15:07.703Z,3.92
2023-05-14T09:17:34.938Z,3.50
2023-05-14T09:20:01.686Z,3.30
2023-05-14T09:25:07.100Z,3.92
2023-05-14T09:27:34.409Z,3.60
2023-05-14T09:30:12.225Z,3.65
2023-05-14T09:32:44.259Z,3.58
2023-05-14T09:35:11.538Z,3.08
2023-05-14T09:37:38.073Z,3.00
2023-05-14T09:40:09.193Z,3.42
2023-05-14T09:42:35.690Z,3.00
2023-05-14T09:45:03.255Z,3.20
2023-05-14T09:47:30.019Z,2.97
2023-05-14T09:49:56.786Z,3.00
2023-05-14T09:52:27.412Z,2.60
2023-05-14T09:54:54.265Z,3.50
2023-05-14T09:57:21.174Z,2.45
2023-05-14T09:59:49.997Z,2.60
2023-05-14T10:02:21.359Z,2.80
2023-05-14T10:04:49.767Z,2.92
2023-05-14T10:07:19.027Z,2.80
2023-05-14T10:09:46.750Z,2.60
2023-05-14T10:12:20.084Z,3.00
2023-05-14T10:14:53.266Z,2.88
2023-05-14T10:17:22.125Z,2.03
2023-05-14T10:19:54.574Z,2.40
2023-05-14T10:22:32.555Z,3.05
2023-05-14T10:24:59.857Z,2.40
2023-05-14T10:27:27.030Z,2.85
2023-05-14T10:29:55.205Z,3.15
2023-05-14T10:32:33.089Z,3.47
2023-05-14T10:35:01.707Z,3.30
2023-05-14T10:37:30.138Z,2.70
2023-05-14T10:40:02.748Z,3.15
2023-05-14T10:42:35.863Z,2.78
2023-05-14T10:45:07.444Z,2.88
2023-05-14T10:47:40.442Z,2.90
2023-05-14T10:50:09.878Z,3.17
2023-05-14T10:52:36.849Z,3.55
2023-05-14T10:55:58.575Z,3.30
2023-05-14T10:59:38.279Z,3.42
2023-05-14T11:01:45.082Z,3.10
2023-05-14T11:04:19.481Z,3.25
2023-05-14T11:06:47.451Z,3.05
2023-05-14T11:09:17.793Z,3.30
2023-05-14T11:11:44.230Z,3.03
2023-05-14T11:14:10.788Z,3.92
2023-05-14T11:16:37.956Z,2.97
2023-05-14T11:19:05.123Z,3.08
2023-05-14T11:21:32.927Z,3.00
2023-05-14T11:24:00.812Z,3.10
2023-05-14T11:26:27.330Z,3.10
2023-05-14T11:28:53.976Z,3.45
2023-05-14T11:31:22.357Z,3.20
2023-05-14T11:33:48.919Z,3.17
2023-05-14T11:36:15.400Z,3.65
2023-05-14T11:38:49.064Z,3.50
2023-05-14T11:41:16.146Z,3.13
2023-05-14T11:43:42.948Z,2.97
2023-05-14T11:48:42.516Z,3.50
2023-05-14T11:51:08.956Z,3.30
2023-05-14T11:53:35.497Z,3.13
2023-05-14T11:56:03.191Z,3.30
2023-05-14T11:58:33.974Z,3.53
2023-05-14T12:01:00.541Z,3.30
2023-05-14T12:03:29.483Z,3.53
2023-05-14T12:05:59.507Z,3.20
2023-05-14T12:08:28.556Z,3.58
2023-05-14T12:10:56.313Z,2.78
2023-05-14T12:13:27.117Z,3.58
2023-05-14T12:16:02.308Z,3.20
2023-05-14T12:18:31.092Z,3.60
2023-05-14T12:21:04.730Z,3.70
2023-05-14T12:23:32.523Z,2.92
2023-05-14T12:26:06.491Z,3.72
2023-05-14T12:28:36.859Z,2.95
2023-05-14T12:31:04.721Z,3.58
2023-05-14T12:33:31.226Z,2.92
2023-05-14T12:36:13.544Z,3.55
2023-05-14T12:38:49.868Z,4.55
2023-05-14T12:41:20.287Z,3.45
2023-05-14T12:43:49.427Z,3.55
2023-05-14T12:46:16.677Z,4.07
2023-05-14T12:48:43.557Z,3.38
2023-05-14T12:51:10.498Z,3.22
2023-05-14T12:53:37.065Z,2.97
2023-05-14T12:56:03.849Z,3.45
2023-05-14T13:00:57.030Z,3.38
2023-05-14T13:05:55.736Z,4.05
2023-05-14T13:08:25.051Z,3.80
2023-05-14T13:11:00.676Z,3.42
2023-05-14T13:13:29.832Z,2.80
2023-05-14T13:15:56.753Z,3.15
2023-05-14T13:18:23.308Z,3.08
2023-05-14T13:20:49.828Z,3.10
2023-05-14T13:23:19.308Z,3.05
2023-05-14T13:25:46.899Z,3.58
2023-05-14T13:28:15.068Z,3.85
2023-05-14T13:30:41.563Z,2.80
2023-05-14T13:33:09.118Z,3.28
2023-05-14T13:35:35.773Z,3.55
2023-05-14T13:40:28.728Z,3.35
2023-05-14T13:42:55.327Z,3.55
2023-05-14T13:47:49.665Z,3.45
2023-05-14T13:50:18.326Z,2.70
2023-05-14T13:55:11.319Z,3.15
2023-05-14T13:57:39.880Z,3.05
2023-05-14T14:00:07.420Z,2.85
2023-05-14T14:02:34.324Z,3.10
2023-05-14T14:05:01.268Z,3.05
2023-05-14T14:07:31.216Z,3.10
2023-05-14T14:09:57.852Z,2.95
2023-05-14T14:14:51.158Z,2.90
2023-05-14T14:23:32.406Z,2.72
2023-05-14T14:25:59.438Z,3.05
2023-05-14T14:28:26.349Z,2.55
2023-05-14T14:30:52.889Z,3.00
2023-05-14T14:33:20.501Z,3.25
2023-05-14T14:35:47.037Z,2.80
2023-05-14T14:38:14.250Z,2.72
2023-05-14T14:40:40.880Z,2.97
2023-05-14T14:45:34.275Z,2.75
2023-05-14T14:48:24.124Z,2.97
2023-05-14T14:50:52.065Z,3.38
2023-05-14T14:53:19.966Z,3.33
2023-05-14T14:55:47.221Z,2.70
2023-05-14T14:58:13.748Z,2.60
2023-05-14T15:00:40.538Z,3.00
2023-05-14T15:03:09.299Z,2.90
2023-05-14T15:05:35.973Z,2.90
2023-05-14T15:08:10.796Z,3.03
2023-05-14T15:10:38.363Z,3.40
2023-05-14T15:13:06.436Z,2.60
2023-05-14T15:15:34.600Z,2.80
2023-05-14T15:18:01.614Z,3.13
2023-05-14T15:20:28.323Z,3.10
2023-05-14T15:22:55.506Z,3.35
2023-05-14T15:25:23.704Z,3.22
2023-05-14T15:27:50.823Z,3.22
2023-05-14T15:30:17.292Z,3.47
2023-05-14T15:32:45.244Z,3.55
2023-05-14T15:35:11.945Z,2.80
2023-05-14T15:40:10.320Z,3.08
2023-05-14T15:42:43.824Z,3.33
2023-05-14T15:45:12.459Z,3.10
2023-05-14T15:47:39.699Z,4.60
2023-05-14T15:50:07.035Z,3.78
2023-05-14T15:52:34.932Z,3.40
2023-05-14T15:55:01.585Z,3.95
2023-05-14T15:57:28.123Z,3.50
2023-05-14T15:59:54.634Z,3.17
2023-05-14T16:02:21.105Z,3.17
2023-05-14T16:04:49.475Z,2.90
2023-05-14T16:07:16.439Z,3.20
2023-05-14T16:09:45.612Z,3.03
2023-05-14T16:12:12.481Z,3.30
2023-05-14T16:14:41.234Z,3.10
2023-05-14T16:17:08.592Z,3.10
2023-05-14T16:22:01.377Z,2.90
2023-05-14T16:24:27.850Z,3.35
2023-05-14T16:26:55.120Z,3.67
2023-05-14T16:29:21.598Z,2.97
2023-05-14T16:31:48.103Z,2.90
2023-05-14T16:34:14.603Z,3.55
2023-05-14T16:36:41.275Z,3.28
2023-05-14T16:39:08.630Z,2.90
2023-05-14T16:41:35.674Z,3.30
2023-05-14T16:44:02.516Z,3.20
2023-05-14T16:46:29.245Z,2.85
2023-05-14T16:48:56.229Z,3.60
2023-05-14T16:53:49.270Z,3.30
2023-05-14T16:56:15.735Z,3.15
2023-05-14T16:58:42.230Z,3.38
2023-05-14T17:01:09.790Z,3.10
2023-05-14T17:03:36.793Z,3.38
2023-05-14T17:08:33.698Z,3.33
2023-05-14T17:11:00.277Z,3.78
2023-05-14T17:13:26.716Z,3.95
2023-05-14T17:15:53.335Z,3.42
2023-05-14T17:20:46.399Z,3.45
2023-05-14T17:23:13.008Z,3.58
2023-05-14T17:25:39.467Z,3.47
2023-05-14T17:28:15.916Z,3.20
2023-05-14T17:30:42.390Z,2.73
2023-05-14T17:33:08.959Z,3.50
2023-05-14T17:35:36.507Z,3.10
2023-05-14T17:38:03.631Z,3.25
2023-05-14T17:40:30.184Z,3.15
2023-05-14T17:42:56.669Z,3.45
2023-05-14T17:45:23.443Z,3.83
2023-05-14T17:47:51.421Z,3.30
2023-05-14T17:50:18.813Z,3.90
2023-05-14T17:52:46.191Z,3.33
2023-05-14T17:55:12.726Z,3.78
2023-05-14T17:57:39.223Z,3.63
2023-05-14T18:00:06.466Z,3.17
2023-05-14T18:02:33.093Z,4.13
2023-05-14T18:05:03.091Z,3.92
2023-05-14T18:07:30.730Z,3.42
2023-05-14T18:09:57.696Z,3.42
2023-05-14T18:12:27.787Z,3.40
2023-05-14T18:14:54.612Z,4.00
2023-05-14T18:17:21.276Z,4.05
2023-05-14T18:19:48.442Z,3.20
2023-05-14T18:22:15.593Z,3.80
2023-05-14T18:24:44.127Z,3.70
2023-05-14T18:27:10.727Z,3.50
2023-05-14T18:29:37.167Z,3.75
2023-05-14T18:32:03.894Z,3.40
2023-05-14T18:36:57.628Z,3.97
2023-05-14T18:39:24.097Z,4.10
2023-05-14T18:41:50.584Z,4.25
2023-05-14T18:44:17.013Z,4.28
2023-05-14T18:46:43.607Z,3.72
2023-05-14T18:51:36.460Z,3.70
2023-05-14T18:54:03.205Z,4.40
2023-05-14T18:58:56.132Z,3.83
2023-05-14T19:01:25.447Z,4.15
2023-05-14T19:03:53.031Z,4.65
2023-05-14T19:06:19.839Z,4.65
2023-05-14T19:08:46.446Z,4.22
2023-05-14T19:11:12.910Z,3.80
2023-05-14T19:13:39.420Z,4.88
2023-05-14T19:16:06.418Z,4.80
2023-05-14T19:18:32.943Z,4.25
2023-05-14T19:21:00.000Z,4.70
2023-05-14T19:23:26.486Z,4.45
2023-05-14T19:25:53.063Z,4.10
2023-05-14T19:28:19.942Z,4.93
2023-05-14T19:30:46.398Z,4.30
2023-05-14T19:33:15.756Z,4.88
2023-05-14T19:35:42.295Z,5.03
2023-05-14T19:38:10.790Z,5.38
2023-05-14T19:40:37.221Z,4.50
2023-05-14T19:43:03.706Z,5.70
2023-05-14T19:45:30.207Z,4.80
2023-05-14T19:47:56.955Z,5.68
2023-05-14T19:52:49.848Z,4.85
2023-05-14T19:55:16.387Z,5.20
2023-05-14T19:57:42.866Z,5.68
2023-05-14T20:00:10.539Z,5.60
2023-05-14T20:02:37.145Z,6.15
2023-05-14T20:05:03.825Z,5.55
2023-05-14T20:07:30.276Z,6.40
2023-05-14T20:09:56.854Z,5.47
2023-05-14T20:12:23.710Z,6.20
2023-05-14T20:14:50.192Z,5.82
2023-05-14T20:17:16.785Z,5.97
2023-05-14T20:19:43.810Z,6.00
2023-05-14T20:22:10.386Z,6.30
2023-05-14T20:24:36.908Z,6.60
2023-05-14T20:27:03.566Z,6.40
2023-05-14T20:29:30.346Z,5.75
2023-05-14T20:34:25.673Z,5.85
2023-05-14T20:37:27.672Z,6.85
2023-05-14T20:39:59.769Z,5.40
2023-05-14T20:42:27.165Z,7.03
2023-05-14T20:44:59.659Z,5.88
2023-05-14T20:47:30.752Z,6.93
2023-05-14T20:50:04.077Z,6.95
2023-05-14T20:52:31.291Z,6.32
2023-05-14T20:55:00.855Z,6.88
2023-05-14T20:57:41.639Z,6.97
2023-05-14T21:00:13.946Z,7.53
2023-05-14T21:02:41.140Z,7.78
2023-05-14T21:05:08.252Z,7.22
2023-05-14T21:07:38.342Z,8.52
2023-05-14T21:10:14.863Z,8.02
2023-05-14T21:12:47.286Z,7.90
2023-05-14T21:15:19.610Z,8.45
2023-05-14T21:17:52.744Z,8.40
2023-05-14T21:20:20.122Z,8.63
2023-05-14T21:22:55.183Z,8.10
2023-05-14T21:25:34.178Z,7.82
2023-05-14T21:28:07.381Z,8.55
2023-05-14T21:33:15.811Z,7.38
2023-05-14T21:35:42.532Z,7.28
2023-05-14T21:38:09.281Z,8.45
2023-05-14T21:43:02.929Z,7.60
2023-05-14T21:45:29.806Z,7.40
2023-05-14T21:50:23.122Z,8.27
2023-05-14T21:52:49.805Z,7.57
2023-05-14T21:55:16.358Z,7.40
2023-05-14T21:57:43.059Z,7.72
2023-05-14T22:02:39.863Z,7.68
2023-05-14T22:05:06.579Z,7.97
2023-05-14T22:07:33.294Z,7.78
2023-05-14T22:09:59.965Z,7.40
2023-05-14T22:12:26.917Z,8.10
2023-05-14T22:14:53.558Z,7.65
2023-05-14T22:17:20.256Z,8.15
2023-05-14T22:22:13.504Z,7.88
2023-05-14T22:24:40.181Z,7.15
2023-05-14T22:29:33.279Z,7.47
2023-05-14T22:31:59.804Z,7.85
2023-05-14T22:34:26.417Z,8.18
2023-05-14T22:36:53.160Z,7.53
2023-05-14T22:41:46.198Z,7.53
2023-05-14T22:44:12.651Z,7.75
2023-05-14T22:46:39.202Z,7.97
2023-05-14T22:49:05.933Z,7.55
2023-05-14T22:51:32.822Z,7.60
2023-05-14T22:53:59.390Z,7.88
2023-05-14T22:56:25.909Z,7.28
2023-05-14T22:58:52.458Z,7.50
2023-05-14T23:01:19.088Z,8.13
2023-05-14T23:06:14.591Z,7.07
2023-05-14T23:08:41.163Z,8.20
2023-05-14T23:11:07.733Z,7.15
2023-05-14T23:13:34.388Z,7.60
2023-05-14T23:18:27.828Z,8.02
2023-05-14T23:20:54.610Z,8.50
2023-05-14T23:23:21.217Z,7.70
2023-05-14T23:25:50.166Z,8.23
2023-05-14T23:28:17.297Z,7.63
2023-05-14T23:30:44.038Z,7.90
2023-05-14T23:35:39.038Z,8.00
2023-05-14T23:38:06.293Z,7.85
2023-05-14T23:40:33.955Z,7.97
2023-05-14T23:43:01.214Z,8.90
2023-05-14T23:45:28.165Z,9.30
2023-05-14T23:47:56.578Z,8.73
2023-05-14T23:50:23.222Z,8.43
2023-05-14T23:52:53.476Z,8.32
2023-05-14T23:55:20.626Z,8.13
2023-05-14T23:57:47.717Z,8.40
